sensor_id;sensor_type;location;lat;lon;timestamp;P1;durP1;ratioP1;P2;durP2;ratioP2
14102;SDS011;7129;48.832;12.472;2022-08-21T12:38:01;6.57;;;5.97;;
14102;SDS011;7129;48.832;12.472;2022-08-21T12:43:12;6.82;;;6.22;;
14102;SDS011;7129;48.832;12.472;2022-08-21T12:48:20;6.85;;;6.25;;
14102;SDS011;7129;48.832;12.472;2022-08-21T12:53:28;6.57;;;5.20;;
14102;SDS011;7129;48.832;12.472;2022-08-21T12:58:39;6.57;;;5.97;;
14102;SDS011;7129;48.832;12.472;2022-08-21T13:03:42;6.30;;;5.70;;
14102;SDS011;7129;48.832;12.472;2022-08-21T13:08:46;6.55;;;5.22;;
14102;SDS011;7129;48.832;12.472;2022-08-21T13:13:58;5.40;;;4.90;;
14102;SDS011;7129;48.832;12.472;2022-08-21T13:19:03;4.93;;;4.63;;
14102;SDS011;7129;48.832;12.472;2022-08-21T13:30:02;9.23;;;5.15;;
14102;SDS011;7129;48.832;12.472;2022-08-21T13:35:10;5.13;;;4.18;;
14102;SDS011;7129;48.832;12.472;2022-08-21T13:40:17;4.50;;;4.15;;
14102;SDS011;7129;48.832;12.472;2022-08-21T13:45:26;4.25;;;3.72;;
14102;SDS011;7129;48.832;12.472;2022-08-21T13:50:32;4.05;;;3.75;;
14102;SDS011;7129;48.832;12.472;2022-08-21T13:55:38;3.53;;;3.30;;
14102;SDS011;7129;48.832;12.472;2022-08-21T14:00:45;4.07;;;3.78;;
14102;SDS011;7129;48.832;12.472;2022-08-21T14:05:48;3.67;;;3.40;;
14102;SDS011;7129;48.832;12.472;2022-08-21T14:10:51;3.47;;;3.17;;
14102;SDS011;7129;48.832;12.472;2022-08-21T14:15:56;3.72;;;3.42;;
14102;SDS011;7129;48.832;12.472;2022-08-21T14:21:05;3.63;;;3.42;;
14102;SDS011;7129;48.832;12.472;2022-08-21T14:26:09;3.85;;;3.38;;
14102;SDS011;7129;48.832;12.472;2022-08-21T14:31:14;4.20;;;3.80;;
14102;SDS011;7129;48.832;12.472;2022-08-21T14:36:18;3.70;;;3.40;;
14102;SDS011;7129;48.832;12.472;2022-08-21T14:41:21;3.70;;;3.40;;
14102;SDS011;7129;48.832;12.472;2022-08-21T14:46:33;29.60;;;6.53;;
14102;SDS011;7129;48.832;12.472;2022-08-21T14:51:35;5.80;;;4.25;;
14102;SDS011;7129;48.832;12.472;2022-08-21T14:56:38;9.77;;;3.70;;
14102;SDS011;7129;48.832;12.472;2022-08-21T15:01:42;3.58;;;3.28;;
14102;SDS011;7129;48.832;12.472;2022-08-21T15:06:44;4.68;;;3.65;;
14102;SDS011;7129;48.832;12.472;2022-08-21T15:11:45;3.78;;;3.47;;
14102;SDS011;7129;48.832;12.472;2022-08-21T15:16:49;4.03;;;3.72;;
14102;SDS011;7129;48.832;12.472;2022-08-21T15:21:52;3.60;;;3.30;;
14102;SDS011;7129;48.832;12.472;2022-08-21T15:26:58;4.03;;;3.83;;
14102;SDS011;7129;48.832;12.472;2022-08-21T15:32:16;3.90;;;3.60;;
14102;SDS011;7129;48.832;12.472;2022-08-21T15:37:20;3.95;;;3.65;;
14102;SDS011;7129;48.832;12.472;2022-08-21T15:42:23;3.97;;;3.67;;
14102;SDS011;7129;48.832;12.472;2022-08-21T15:47:29;4.05;;;3.80;;
14102;SDS011;7129;48.832;12.472;2022-08-21T15:52:33;3.95;;;3.60;;
14102;SDS011;7129;48.832;12.472;2022-08-21T15:57:35;4.50;;;4.20;;
14102;SDS011;7129;48.832;12.472;2022-08-21T16:02:41;4.20;;;3.90;;
14102;SDS011;7129;48.832;12.472;2022-08-21T16:07:46;4.18;;;3.78;;
14102;SDS011;7129;48.832;12.472;2022-08-21T16:12:49;4.40;;;4.00;;
14102;SDS011;7129;48.832;12.472;2022-08-21T16:17:54;4.28;;;3.97;;
14102;SDS011;7129;48.832;12.472;2022-08-21T16:22:56;4.35;;;4.05;;
14102;SDS011;7129;48.832;12.472;2022-08-21T16:27:59;4.00;;;3.70;;
14102;SDS011;7129;48.832;12.472;2022-08-21T16:33:04;3.92;;;3.63;;
14102;SDS011;7129;48.832;12.472;2022-08-21T16:38:07;4.28;;;3.88;;
14102;SDS011;7129;48.832;12.472;2022-08-21T16:43:09;4.22;;;3.90;;
14102;SDS011;7129;48.832;12.472;2022-08-21T16:48:12;3.95;;;3.65;;
14102;SDS011;7129;48.832;12.472;2022-08-21T16:53:14;4.38;;;4.07;;
14102;SDS011;7129;48.832;12.472;2022-08-21T16:58:17;4.72;;;4.32;;
14102;SDS011;7129;48.832;12.472;2022-08-21T17:03:27;4.20;;;3.90;;
14102;SDS011;7129;48.832;12.472;2022-08-21T17:08:32;4.43;;;4.03;;
14102;SDS011;7129;48.832;12.472;2022-08-21T17:13:34;4.80;;;4.00;;
14102;SDS011;7129;48.832;12.472;2022-08-21T17:18:38;10.90;;;4.78;;
14102;SDS011;7129;48.832;12.472;2022-08-21T17:23:39;4.50;;;4.10;;
14102;SDS011;7129;48.832;12.472;2022-08-21T17:28:42;4.65;;;4.28;;
14102;SDS011;7129;48.832;12.472;2022-08-21T17:33:47;4.47;;;4.18;;
14102;SDS011;7129;48.832;12.472;2022-08-21T17:38:52;3.85;;;3.65;;
14102;SDS011;7129;48.832;12.472;2022-08-21T17:43:54;4.40;;;4.00;;
14102;SDS011;7129;48.832;12.472;2022-08-21T17:48:57;4.10;;;3.80;;
14102;SDS011;7129;48.832;12.472;2022-08-21T17:54:00;4.68;;;4.32;;
14102;SDS011;7129;48.832;12.472;2022-08-21T17:59:02;4.28;;;3.88;;
14102;SDS011;7129;48.832;12.472;2022-08-21T18:04:06;4.97;;;4.03;;
14102;SDS011;7129;48.832;12.472;2022-08-21T18:09:09;4.80;;;4.15;;
14102;SDS011;7129;48.832;12.472;2022-08-21T18:14:11;4.55;;;4.18;;
14102;SDS011;7129;48.832;12.472;2022-08-21T18:19:24;4.40;;;4.10;;
14102;SDS011;7129;48.832;12.472;2022-08-21T18:24:31;4.43;;;4.13;;
14102;SDS011;7129;48.832;12.472;2022-08-21T18:29:33;4.53;;;4.13;;
14102;SDS011;7129;48.832;12.472;2022-08-21T18:34:39;5.22;;;4.72;;
14102;SDS011;7129;48.832;12.472;2022-08-21T18:39:41;5.47;;;4.75;;
14102;SDS011;7129;48.832;12.472;2022-08-21T18:44:44;5.10;;;4.70;;
14102;SDS011;7129;48.832;12.472;2022-08-21T18:49:50;4.90;;;4.47;;
14102;SDS011;7129;48.832;12.472;2022-08-21T18:54:52;5.10;;;4.60;;
14102;SDS011;7129;48.832;12.472;2022-08-21T18:59:54;5.10;;;4.60;;
14102;SDS011;7129;48.832;12.472;2022-08-21T19:04:58;5.20;;;4.80;;
14102;SDS011;7129;48.832;12.472;2022-08-21T19:10:00;4.57;;;4.18;;
14102;SDS011;7129;48.832;12.472;2022-08-21T19:15:02;5.35;;;4.65;;
14102;SDS011;7129;48.832;12.472;2022-08-21T19:20:08;4.90;;;4.50;;
14102;SDS011;7129;48.832;12.472;2022-08-21T19:25:13;5.20;;;4.45;;
14102;SDS011;7129;48.832;12.472;2022-08-21T19:30:15;4.85;;;4.45;;
14102;SDS011;7129;48.832;12.472;2022-08-21T19:35:19;5.07;;;4.70;;
14102;SDS011;7129;48.832;12.472;2022-08-21T19:40:22;4.82;;;4.43;;
14102;SDS011;7129;48.832;12.472;2022-08-21T19:45:33;8.80;;;5.22;;
14102;SDS011;7129;48.832;12.472;2022-08-21T19:50:41;6.78;;;4.68;;
14102;SDS011;7129;48.832;12.472;2022-08-21T19:55:43;6.53;;;4.90;;
14102;SDS011;7129;48.832;12.472;2022-08-21T20:00:46;7.43;;;5.05;;
14102;SDS011;7129;48.832;12.472;2022-08-21T20:05:49;5.43;;;4.55;;
14102;SDS011;7129;48.832;12.472;2022-08-21T20:10:51;4.50;;;4.15;;
14102;SDS011;7129;48.832;12.472;2022-08-21T20:15:55;5.18;;;4.70;;
14102;SDS011;7129;48.832;12.472;2022-08-21T20:20:58;4.55;;;4.15;;
14102;SDS011;7129;48.832;12.472;2022-08-21T20:26:00;5.43;;;5.00;;
14102;SDS011;7129;48.832;12.472;2022-08-21T20:31:02;5.35;;;4.95;;
14102;SDS011;7129;48.832;12.472;2022-08-21T20:36:05;4.90;;;4.60;;
14102;SDS011;7129;48.832;12.472;2022-08-21T20:41:07;5.57;;;4.95;;
14102;SDS011;7129;48.832;12.472;2022-08-21T20:46:09;5.20;;;4.68;;
14102;SDS011;7129;48.832;12.472;2022-08-21T20:51:14;6.10;;;4.70;;
14102;SDS011;7129;48.832;12.472;2022-08-21T20:56:24;5.28;;;4.88;;
14102;SDS011;7129;48.832;12.472;2022-08-21T21:01:35;5.63;;;5.22;;
14102;SDS011;7129;48.832;12.472;2022-08-21T21:06:39;5.68;;;5.20;;
14102;SDS011;7129;48.832;12.472;2022-08-21T21:11:43;5.80;;;5.40;;
14102;SDS011;7129;48.832;12.472;2022-08-21T21:16:51;5.50;;;5.00;;
14102;SDS011;7129;48.832;12.472;2022-08-21T21:22:02;5.60;;;5.20;;
14102;SDS011;7129;48.832;12.472;2022-08-21T21:27:09;5.75;;;5.25;;
14102;SDS011;7129;48.832;12.472;2022-08-21T21:32:17;5.25;;;4.85;;
14102;SDS011;7129;48.832;12.472;2022-08-21T21:37:23;5.97;;;5.47;;
14102;SDS011;7129;48.832;12.472;2022-08-21T21:42:35;6.00;;;5.55;;
14102;SDS011;7129;48.832;12.472;2022-08-21T21:47:46;6.00;;;5.53;;
14102;SDS011;7129;48.832;12.472;2022-08-21T21:53:09;6.70;;;6.20;;
14102;SDS011;7129;48.832;12.472;2022-08-21T21:58:34;6.00;;;5.50;;
14102;SDS011;7129;48.832;12.472;2022-08-21T22:03:47;6.43;;;5.93;;
14102;SDS011;7129;48.832;12.472;2022-08-21T22:08:57;6.05;;;5.55;;
14102;SDS011;7129;48.832;12.472;2022-08-21T22:14:06;7.05;;;6.50;;
14102;SDS011;7129;48.832;12.472;2022-08-21T22:19:14;7.18;;;6.18;;
14102;SDS011;7129;48.832;12.472;2022-08-21T22:24:22;6.75;;;6.15;;
14102;SDS011;7129;48.832;12.472;2022-08-21T22:29:46;6.57;;;6.05;;
14102;SDS011;7129;48.832;12.472;2022-08-21T22:34:59;7.00;;;6.28;;
14102;SDS011;7129;48.832;12.472;2022-08-21T22:40:05;7.20;;;6.47;;
14102;SDS011;7129;48.832;12.472;2022-08-21T22:45:08;7.15;;;6.53;;
14102;SDS011;7129;48.832;12.472;2022-08-21T22:50:17;6.65;;;6.10;;
14102;SDS011;7129;48.832;12.472;2022-08-21T22:55:30;7.40;;;6.80;;
14102;SDS011;7129;48.832;12.472;2022-08-21T23:00:39;7.15;;;6.55;;
14102;SDS011;7129;48.832;12.472;2022-08-21T23:05:48;6.70;;;6.20;;
14102;SDS011;7129;48.832;12.472;2022-08-21T23:10:56;7.22;;;6.63;;
14102;SDS011;7129;48.832;12.472;2022-08-21T23:16:00;8.70;;;6.68;;
14102;SDS011;7129;48.832;12.472;2022-08-21T23:21:09;7.97;;;7.28;;
14102;SDS011;7129;48.832;12.472;2022-08-21T23:26:23;7.68;;;6.97;;
14102;SDS011;7129;48.832;12.472;2022-08-21T23:31:30;7.30;;;6.60;;
14102;SDS011;7129;48.832;12.472;2022-08-21T23:36:44;6.70;;;6.10;;
14102;SDS011;7129;48.832;12.472;2022-08-21T23:42:21;8.73;;;7.13;;
14102;SDS011;7129;48.832;12.472;2022-08-21T23:47:38;7.60;;;6.90;;
14102;SDS011;7129;48.832;12.472;2022-08-21T23:52:50;9.02;;;8.20;;
14102;SDS011;7129;48.832;12.472;2022-08-21T23:58:03;9.68;;;8.77;;
